Country
Station

 

Weather  for  Dijon  -  France    France

  
12 °C (54 °F)
    
 
 

Current METAR for Dijon is :

LFSD 200700Z AUTO VRB03KT CAVOK 12/09 Q1025

 

This is a report for Dijon - France.
 
The report was made 17 minutes ago, at 07:00 UTC .
The wind was blowing at a speed of 1.5 meters per second (3.5 miles per hour) from variable directions.
 
The temperature was 12 °C (54 °F), with a dew-point at 9 °C (48 °F).
The atmospheric pressure was 1025 hPa (30.27 inHg).
The relative humidity was 81.9%.
 
There were no clouds below 1500 meter (5000 feet) and no cumulonimbus clouds.
 
The overall visibility was greater than 10 kilometers (6.2 miles).
 

 
 
 
 

Country :   A   B   C   D   E   F   G   H   I   J   K   L   M   N   O   P   Q   R   S   T   U   V   W   Y   Z

 

Site Info  |  Disclaimer  |  Credits  |  Privacy
Contact us  |  Add to favorites
© 2013-2019 METARs - All rights reserved